Paradise, Arizona
Current Conditions -  °F | °C
As of 8:55 PM on Saturday 25 Oct 2014 (Local Time) from KLSB Reporting Station
Broken Clouds Broken Clouds  
Wind Chill: 63°   Ceiling: 9000
Heat Index: 63°   Visibility: 10mi
Dew Point: 41°   Wind: 5mph
Humidity: 45%   Direction: 190°S
Pressure: 30.15"   Gusts: NA
Location:  32.164°N, 109.336°W
Report Text: KLSB 260355Z AUTO 19004KT 10SM BKN090 17/05 A3015 RMK AO2
Loading
Personal Weather Stations






























Interactive Weather Map
Tropical Storm Tracking
New forecast layout! Learn more

10-Day Weather Forecast

Advertisements
Track Severe Weather on mobile